Sydenham, Canada
Current Conditions -  °F | °C
As of 1:00 AM on Saturday 25 Oct 2014 (Local Time) from CYVV Reporting Station
Overcast Overcast  
Wind Chill: 52°   Ceiling: 2100
Heat Index: 52°   Visibility: 8mi
Dew Point: 50°   Wind: 8mph
Humidity: 94%   Direction: 230°SW
Pressure: 29.87"   Gusts: NA
Location:  44.57°N, 80.8°W
Report Text: CYVV 250500Z 23007KT 8SM OVC021 11/10 A2987 RMK SC8 SLP120
Loading
Personal Weather Stations






























Interactive Weather Map
Tropical Storm Tracking
New forecast layout! Learn more

10-Day Weather Forecast

Advertisements
Track Severe Weather on mobile